Time,TemperatureF,DewpointF,PressureIn,WindDirection,WindDirectionDegrees,WindSpeedMPH,WindSpeedGustMPH,Humidity,HourlyPrecipIn,Conditions,Clouds,dailyrainin,SoftwareType,DateUTC
2013-02-23 00:02:00,30.0,26.0,29.97,WNW,302,2.0,7.0,85,0.00,,,0.15,,2013-02-23 05:02:00,
2013-02-23 00:12:00,30.0,26.0,29.97,WNW,302,2.0,7.0,85,0.00,,,0.15,,2013-02-23 05:12:00,
2013-02-23 00:22:00,30.0,26.0,29.97,NW,319,4.0,8.0,84,0.00,,,0.15,,2013-02-23 05:22:00,
2013-02-23 00:32:00,30.0,26.0,29.97,NW,304,6.0,10.0,84,0.00,,,0.15,,2013-02-23 05:32:00,
2013-02-23 00:41:00,30.0,26.0,29.97,NW,304,6.0,10.0,84,0.00,,,0.15,,2013-02-23 05:41:00,
2013-02-23 00:52:00,30.0,26.0,29.98,WNW,302,3.0,7.0,84,0.00,,,0.15,,2013-02-23 05:52:00,
2013-02-23 01:01:00,29.0,25.0,29.98,NW,311,5.0,10.0,84,0.00,,,0.15,,2013-02-23 06:01:00,
2013-02-23 01:11:00,29.0,25.0,29.98,NW,311,5.0,10.0,84,0.00,,,0.15,,2013-02-23 06:11:00,
2013-02-23 01:22:00,29.0,25.0,29.98,NW,315,5.0,8.0,84,0.00,,,0.15,,2013-02-23 06:22:00,
2013-02-23 01:31:00,29.0,25.0,29.97,NW,316,6.0,9.0,85,0.00,,,0.15,,2013-02-23 06:31:00,
2013-02-23 01:41:00,29.0,25.0,29.97,NW,316,6.0,9.0,85,0.00,,,0.15,,2013-02-23 06:41:00,
2013-02-23 01:52:00,29.0,25.0,29.97,WNW,294,4.0,7.0,85,0.00,,,0.15,,2013-02-23 06:52:00,
2013-02-23 02:01:00,29.0,25.0,29.97,NW,315,7.0,10.0,85,0.00,,,0.15,,2013-02-23 07:01:00,
2013-02-23 02:11:00,29.0,25.0,29.97,NW,313,5.0,10.0,85,0.00,,,0.15,,2013-02-23 07:11:00,
2013-02-23 02:21:00,29.0,25.0,29.97,NW,313,5.0,10.0,85,0.00,,,0.15,,2013-02-23 07:21:00,
2013-02-23 02:31:00,29.0,25.0,29.97,NW,304,3.0,8.0,86,0.00,,,0.15,,2013-02-23 07:31:00,
2013-02-23 02:41:00,29.0,25.0,29.97,NW,304,3.0,8.0,86,0.00,,,0.15,,2013-02-23 07:41:00,
2013-02-23 02:52:00,28.0,24.0,29.97,NW,321,4.0,9.0,86,0.00,,,0.15,,2013-02-23 07:52:00,
2013-02-23 03:01:00,28.0,24.0,29.97,NW,311,4.0,9.0,86,0.00,,,0.15,,2013-02-23 08:01:00,
2013-02-23 03:11:00,28.0,24.0,29.97,NW,311,4.0,9.0,86,0.00,,,0.15,,2013-02-23 08:11:00,
2013-02-23 03:21:00,28.0,24.0,29.97,NW,315,5.0,8.0,86,0.00,,,0.15,,2013-02-23 08:21:00,
2013-02-23 03:31:00,28.0,24.0,29.97,NW,314,3.0,8.0,86,0.00,,,0.15,,2013-02-23 08:31:00,
2013-02-23 03:41:00,28.0,24.0,29.97,NW,314,3.0,8.0,86,0.00,,,0.15,,2013-02-23 08:41:00,
2013-02-23 03:52:00,27.0,23.0,29.96,NW,312,3.0,8.0,86,0.00,,,0.15,,2013-02-23 08:52:00,
2013-02-23 04:01:00,27.0,24.0,29.96,NW,315,3.0,7.0,87,0.00,,,0.15,,2013-02-23 09:01:00,
2013-02-23 04:11:00,27.0,24.0,29.96,NW,315,3.0,7.0,87,0.00,,,0.15,,2013-02-23 09:11:00,
2013-02-23 04:21:00,27.0,24.0,29.96,NW,317,4.0,8.0,87,0.00,,,0.15,,2013-02-23 09:21:00,
2013-02-23 04:31:00,27.0,24.0,29.95,NW,325,5.0,9.0,88,0.00,,,0.15,,2013-02-23 09:31:00,
2013-02-23 04:41:00,27.0,24.0,29.95,NW,325,5.0,9.0,88,0.00,,,0.15,,2013-02-23 09:41:00,
2013-02-23 04:52:00,27.0,24.0,29.95,NW,316,5.0,9.0,88,0.00,,,0.15,,2013-02-23 09:52:00,
2013-02-23 05:01:00,28.0,25.0,29.96,NW,323,6.0,9.0,88,0.00,,,0.15,,2013-02-23 10:01:00,
2013-02-23 05:11:00,28.0,25.0,29.96,NW,322,5.0,8.0,88,0.00,,,0.15,,2013-02-23 10:11:00,
2013-02-23 05:21:00,28.0,25.0,29.96,NW,322,5.0,8.0,88,0.00,,,0.15,,2013-02-23 10:21:00,
2013-02-23 05:31:00,28.0,25.0,29.96,NW,315,5.0,9.0,88,0.00,,,0.15,,2013-02-23 10:31:00,
2013-02-23 05:41:00,28.0,25.0,29.96,NW,315,5.0,9.0,88,0.00,,,0.15,,2013-02-23 10:41:00,
2013-02-23 05:52:00,27.0,24.0,29.96,NNW,327,5.0,8.0,88,0.00,,,0.15,,2013-02-23 10:52:00,
2013-02-23 06:02:00,27.0,24.0,29.96,NW,318,4.0,8.0,88,0.00,,,0.15,,2013-02-23 11:02:00,
2013-02-23 06:11:00,27.0,24.0,29.96,NW,318,4.0,8.0,88,0.00,,,0.15,,2013-02-23 11:11:00,
2013-02-23 06:21:00,27.0,24.0,29.97,NW,311,5.0,9.0,87,0.00,,,0.15,,2013-02-23 11:21:00,
2013-02-23 06:32:00,27.0,24.0,29.97,NW,313,6.0,9.0,87,0.00,,,0.15,,2013-02-23 11:32:00,
2013-02-23 06:41:00,27.0,24.0,29.97,NW,313,6.0,9.0,87,0.00,,,0.15,,2013-02-23 11:41:00,
2013-02-23 06:52:00,27.0,24.0,29.97,NW,318,5.0,7.0,87,0.00,,,0.15,,2013-02-23 11:52:00,
2013-02-23 07:01:00,27.0,24.0,29.97,WNW,303,4.0,7.0,87,0.00,,,0.15,,2013-02-23 12:01:00,
2013-02-23 07:11:00,27.0,24.0,29.97,WNW,303,4.0,7.0,87,0.00,,,0.15,,2013-02-23 12:11:00,
2013-02-23 07:21:00,27.0,24.0,29.98,NW,318,7.0,9.0,87,0.00,,,0.15,,2013-02-23 12:21:00,
2013-02-23 07:32:00,27.0,24.0,29.98,NW,318,6.0,8.0,88,0.00,,,0.15,,2013-02-23 12:32:00,
2013-02-23 07:42:00,27.0,24.0,29.98,NW,318,6.0,8.0,88,0.00,,,0.15,,2013-02-23 12:42:00,
2013-02-23 07:52:00,27.0,24.0,29.98,NW,315,6.0,9.0,88,0.00,,,0.15,,2013-02-23 12:52:00,
2013-02-23 08:01:00,27.0,24.0,29.98,NW,315,6.0,10.0,87,0.00,,,0.15,,2013-02-23 13:01:00,
2013-02-23 08:11:00,26.0,23.0,29.98,NW,315,6.0,9.0,87,0.00,,,0.15,,2013-02-23 13:11:00,
2013-02-23 08:22:00,26.0,23.0,29.98,NW,315,6.0,9.0,87,0.00,,,0.15,,2013-02-23 13:22:00,
2013-02-23 08:32:00,26.0,22.0,29.98,NNW,328,4.0,7.0,86,0.00,,,0.15,,2013-02-23 13:32:00,
2013-02-23 08:42:00,26.0,22.0,29.98,NNW,328,4.0,7.0,86,0.00,,,0.15,,2013-02-23 13:42:00,
2013-02-23 08:52:00,26.0,22.0,29.98,NNW,328,4.0,7.0,86,0.00,,,0.15,,2013-02-23 13:52:00,
2013-02-23 09:02:00,27.0,23.0,29.97,NW,323,3.0,7.0,86,0.00,,,0.15,,2013-02-23 14:02:00,
2013-02-23 09:11:00,27.0,23.0,29.97,NW,323,3.0,7.0,86,0.00,,,0.15,,2013-02-23 14:11:00,
2013-02-23 09:21:00,28.0,24.0,29.97,NW,317,5.0,8.0,84,0.00,,,0.15,,2013-02-23 14:21:00,
2013-02-23 09:32:00,29.0,25.0,29.97,NW,320,5.0,7.0,83,0.00,,,0.15,,2013-02-23 14:32:00,
2013-02-23 09:42:00,29.0,25.0,29.97,NW,320,5.0,7.0,83,0.00,,,0.15,,2013-02-23 14:42:00,
2013-02-23 09:52:00,29.0,24.0,29.98,North,350,5.0,8.0,82,0.00,,,0.15,,2013-02-23 14:52:00,
2013-02-23 10:01:00,29.0,24.0,29.98,NNW,331,4.0,9.0,81,0.00,,,0.15,,2013-02-23 15:01:00,
2013-02-23 10:11:00,29.0,24.0,29.98,NNW,331,4.0,9.0,81,0.00,,,0.15,,2013-02-23 15:11:00,
2013-02-23 10:21:00,29.0,24.0,29.97,NNW,331,3.0,6.0,81,0.00,,,0.15,,2013-02-23 15:21:00,
2013-02-23 10:31:00,29.0,24.0,29.98,NNW,338,2.0,8.0,81,0.01,,,0.16,,2013-02-23 15:31:00,
2013-02-23 10:41:00,29.0,24.0,29.98,NNW,338,2.0,8.0,81,0.01,,,0.16,,2013-02-23 15:41:00,
2013-02-23 10:52:00,29.0,24.0,29.98,NW,321,3.0,8.0,80,0.01,,,0.16,,2013-02-23 15:52:00,
2013-02-23 11:01:00,29.0,24.0,29.98,NW,313,6.0,9.0,80,0.01,,,0.16,,2013-02-23 16:01:00,
2013-02-23 11:11:00,29.0,24.0,29.98,NW,313,6.0,9.0,80,0.01,,,0.16,,2013-02-23 16:11:00,
2013-02-23 11:21:00,29.0,24.0,29.97,NW,320,4.0,9.0,80,0.01,,,0.16,,2013-02-23 16:21:00,
2013-02-23 11:31:00,29.0,23.0,29.98,NW,323,4.0,10.0,78,0.01,,,0.17,,2013-02-23 16:31:00,
2013-02-23 11:42:00,29.0,23.0,29.98,NW,323,4.0,10.0,78,0.01,,,0.17,,2013-02-23 16:42:00,
2013-02-23 11:52:00,30.0,24.0,29.98,NW,311,5.0,10.0,77,0.01,,,0.17,,2013-02-23 16:52:00,
2013-02-23 12:01:00,30.0,23.0,29.98,NNW,327,3.0,11.0,76,0.01,,,0.17,,2013-02-23 17:01:00,
2013-02-23 12:11:00,30.0,23.0,29.98,NW,322,5.0,11.0,75,0.01,,,0.17,,2013-02-23 17:11:00,
2013-02-23 12:21:00,30.0,23.0,29.98,NW,322,5.0,11.0,75,0.01,,,0.17,,2013-02-23 17:21:00,
2013-02-23 12:31:00,30.0,23.0,29.97,NW,324,6.0,11.0,76,0.01,,,0.18,,2013-02-23 17:31:00,
2013-02-23 12:42:00,30.0,23.0,29.97,NW,324,6.0,11.0,76,0.01,,,0.18,,2013-02-23 17:42:00,
2013-02-23 12:52:00,31.0,24.0,29.97,NW,314,5.0,9.0,75,0.01,,,0.18,,2013-02-23 17:52:00,
2013-02-23 13:01:00,30.0,23.0,29.96,NW,315,5.0,9.0,76,0.02,,,0.19,,2013-02-23 18:01:00,
2013-02-23 13:12:00,30.0,23.0,29.96,NW,315,5.0,9.0,76,0.02,,,0.19,,2013-02-23 18:12:00,
2013-02-23 13:21:00,31.0,25.0,29.96,NW,313,4.0,10.0,77,0.02,,,0.19,,2013-02-23 18:21:00,
2013-02-23 13:32:00,32.0,25.0,29.96,NW,315,5.0,10.0,75,0.02,,,0.20,,2013-02-23 18:32:00,
2013-02-23 13:41:00,32.0,25.0,29.96,NW,315,5.0,10.0,75,0.02,,,0.20,,2013-02-23 18:41:00,
2013-02-23 13:52:00,31.0,24.0,29.95,WNW,302,5.0,9.0,76,0.03,,,0.21,,2013-02-23 18:52:00,
2013-02-23 14:01:00,31.0,24.0,29.94,NW,322,2.0,10.0,76,0.02,,,0.21,,2013-02-23 19:01:00,
2013-02-23 14:11:00,32.0,25.0,29.94,NW,313,5.0,9.0,76,0.02,,,0.21,,2013-02-23 19:11:00,
2013-02-23 14:21:00,32.0,25.0,29.94,NW,313,5.0,9.0,76,0.02,,,0.21,,2013-02-23 19:21:00,
2013-02-23 14:32:00,31.0,25.0,29.95,WNW,300,5.0,10.0,77,0.01,,,0.18,,2013-02-23 19:32:00,
2013-02-23 14:41:00,31.0,25.0,29.95,WNW,300,5.0,10.0,77,0.01,,,0.18,,2013-02-23 19:41:00,
2013-02-23 14:52:00,31.0,25.0,29.96,NW,313,6.0,9.0,79,0.01,,,0.19,,2013-02-23 19:52:00,
2013-02-23 15:01:00,31.0,25.0,29.94,NW,314,3.0,9.0,78,0.01,,,0.19,,2013-02-23 20:01:00,
2013-02-23 15:11:00,31.0,25.0,29.94,NW,314,3.0,9.0,78,0.01,,,0.19,,2013-02-23 20:11:00,
2013-02-23 15:21:00,31.0,25.0,29.95,NW,322,5.0,9.0,78,0.01,,,0.19,,2013-02-23 20:21:00,
2013-02-23 15:32:00,31.0,25.0,29.94,NW,317,5.0,9.0,79,0.01,,,0.16,,2013-02-23 20:32:00,
2013-02-23 15:41:00,31.0,25.0,29.94,NW,317,5.0,9.0,79,0.01,,,0.16,,2013-02-23 20:41:00,
2013-02-23 15:52:00,31.0,25.0,29.94,NNW,342,8.0,12.0,79,0.01,,,0.16,,2013-02-23 20:52:00,
2013-02-23 16:01:00,31.0,25.0,29.94,NW,314,8.0,13.0,77,0.01,,,0.16,,2013-02-23 21:01:00,
2013-02-23 16:11:00,31.0,25.0,29.94,NW,313,6.0,9.0,79,0.01,,,0.16,,2013-02-23 21:11:00,
2013-02-23 16:22:00,31.0,25.0,29.94,NW,313,6.0,9.0,79,0.01,,,0.16,,2013-02-23 21:22:00,
2013-02-23 16:31:00,31.0,25.0,29.94,NW,318,5.0,10.0,79,0.00,,,0.11,,2013-02-23 21:31:00,
2013-02-23 16:41:00,31.0,25.0,29.94,NW,318,5.0,10.0,79,0.00,,,0.11,,2013-02-23 21:41:00,
2013-02-23 16:52:00,30.0,24.0,29.94,NNW,335,3.0,10.0,78,0.00,,,0.11,,2013-02-23 21:52:00,
2013-02-23 17:01:00,30.0,24.0,29.94,NW,323,6.0,8.0,78,0.00,,,0.11,,2013-02-23 22:01:00,
2013-02-23 17:11:00,30.0,24.0,29.94,NW,310,6.0,9.0,79,0.00,,,0.11,,2013-02-23 22:11:00,
2013-02-23 17:21:00,30.0,24.0,29.94,NW,310,6.0,9.0,79,0.00,,,0.11,,2013-02-23 22:21:00,
2013-02-23 17:31:00,30.0,25.0,29.95,NW,323,7.0,9.0,80,0.00,,,0.09,,2013-02-23 22:31:00,
2013-02-23 17:41:00,30.0,25.0,29.95,NW,323,7.0,9.0,80,0.00,,,0.09,,2013-02-23 22:41:00,
2013-02-23 17:52:00,29.0,24.0,29.95,NW,316,6.0,8.0,81,0.00,,,0.09,,2013-02-23 22:52:00,
2013-02-23 18:01:00,29.0,24.0,29.95,NW,316,6.0,8.0,81,0.00,,,0.09,,2013-02-23 23:01:00,
2013-02-23 18:11:00,29.0,-99.9,29.95,NW,326,3.0,7.0,-999,0.00,,,0.09,,2013-02-23 23:11:00,
2013-02-23 18:22:00,29.0,-99.9,29.95,NW,326,3.0,7.0,-999,0.00,,,0.09,,2013-02-23 23:22:00,
2013-02-23 18:32:00,29.0,-99.9,29.95,NNW,331,3.0,6.0,-999,0.00,,,0.09,,2013-02-23 23:32:00,
2013-02-23 18:42:00,29.0,-99.9,29.95,NNW,331,3.0,6.0,-999,0.00,,,0.09,,2013-02-23 23:42:00,
2013-02-23 18:52:00,29.0,24.0,29.96,NNW,329,2.0,7.0,82,0.00,,,0.09,,2013-02-23 23:52:00,
2013-02-23 19:01:00,29.0,24.0,29.96,NNW,330,3.0,7.0,82,0.00,,,0.09,,2013-02-24 00:01:00,
2013-02-23 19:11:00,29.0,24.0,29.96,NNW,330,3.0,7.0,82,0.00,,,0.09,,2013-02-24 00:11:00,
2013-02-23 19:22:00,29.0,24.0,29.96,NW,325,5.0,9.0,82,0.00,,,0.09,,2013-02-24 00:22:00,
2013-02-23 19:32:00,28.0,-99.9,29.97,NW,319,4.0,6.0,-999,0.00,,,0.09,,2013-02-24 00:32:00,
2013-02-23 19:42:00,28.0,-99.9,29.97,NW,319,4.0,6.0,-999,0.00,,,0.09,,2013-02-24 00:42:00,
2013-02-23 19:52:00,28.0,23.0,29.97,NNW,333,2.0,7.0,82,0.00,,,0.09,,2013-02-24 00:52:00,
2013-02-23 20:01:00,-999.0,-99.9,29.97,NW,312,5.0,9.0,-999,0.00,,,0.09,,2013-02-24 01:01:00,
2013-02-23 20:11:00,-999.0,-99.9,29.97,NW,312,5.0,9.0,-999,0.00,,,0.09,,2013-02-24 01:11:00,
2013-02-23 20:22:00,28.0,24.0,29.97,NNW,330,3.0,9.0,83,0.00,,,0.09,,2013-02-24 01:22:00,
2013-02-23 20:32:00,28.0,-99.9,29.97,NW,326,2.0,6.0,-999,0.00,,,0.08,,2013-02-24 01:32:00,
2013-02-23 20:42:00,28.0,-99.9,29.97,NW,326,2.0,6.0,-999,0.00,,,0.08,,2013-02-24 01:42:00,
2013-02-23 21:01:00,28.0,24.0,29.97,NNW,327,2.0,6.0,84,0.00,,,0.08,,2013-02-24 02:01:00,
2013-02-23 21:11:00,28.0,24.0,29.97,NNW,327,2.0,6.0,84,0.00,,,0.08,,2013-02-24 02:11:00,
2013-02-23 21:21:00,28.0,24.0,29.97,NW,319,4.0,7.0,85,0.00,,,0.08,,2013-02-24 02:21:00,
2013-02-23 21:32:00,28.0,24.0,29.97,NW,321,4.0,9.0,84,0.00,,,0.08,,2013-02-24 02:32:00,
2013-02-23 21:41:00,28.0,24.0,29.97,NW,321,4.0,9.0,84,0.00,,,0.08,,2013-02-24 02:41:00,
2013-02-23 21:52:00,28.0,24.0,29.97,NNW,329,2.0,8.0,84,0.00,,,0.08,,2013-02-24 02:52:00,
2013-02-23 22:01:00,28.0,24.0,29.98,NW,325,4.0,8.0,84,0.00,,,0.08,,2013-02-24 03:01:00,
2013-02-23 22:11:00,27.0,23.0,29.97,NNW,333,4.0,9.0,84,0.00,,,0.08,,2013-02-24 03:11:00,
2013-02-23 22:21:00,27.0,23.0,29.97,NNW,333,4.0,9.0,84,0.00,,,0.08,,2013-02-24 03:21:00,
2013-02-23 22:31:00,27.0,23.0,29.98,NW,323,3.0,7.0,84,0.00,,,0.08,,2013-02-24 03:31:00,
2013-02-23 22:42:00,27.0,23.0,29.98,NW,323,3.0,7.0,84,0.00,,,0.08,,2013-02-24 03:42:00,
2013-02-23 22:52:00,-999.0,-99.9,29.97,NW,322,2.0,5.0,-999,0.00,,,0.08,,2013-02-24 03:52:00,
2013-02-23 23:01:00,27.0,23.0,29.97,NW,320,5.0,7.0,84,0.00,,,0.08,,2013-02-24 04:01:00,
2013-02-23 23:11:00,27.0,23.0,29.97,NW,320,5.0,7.0,84,0.00,,,0.08,,2013-02-24 04:11:00,
2013-02-23 23:22:00,-999.0,-99.9,29.98,NW,319,2.0,6.0,-999,0.00,,,0.08,,2013-02-24 04:22:00,
2013-02-23 23:31:00,27.0,23.0,29.98,NW,325,2.0,7.0,85,0.00,,,0.08,,2013-02-24 04:31:00,
2013-02-23 23:41:00,27.0,23.0,29.98,NW,325,2.0,7.0,85,0.00,,,0.08,,2013-02-24 04:41:00,
2013-02-23 23:52:00,27.0,23.0,29.98,NW,319,3.0,6.0,85,0.00,,,0.08,,2013-02-24 04:52:00,